Time;durP1;ratioP1;P1;durP2;ratioP2;P2;SDS_P1;SDS_P2;PMS_P1;PMS_P2;Temp;Humidity;BMP_temperature;BMP_pressure;BME280_temperature;BME280_humidity;BME280_pressure;Samples;Min_cycle;Max_cycle;Signal;HPM_P1;HPM_P2
2022/01/20 00:03:22;;;;;;;17.17;2.87;;;2.90;99.90;;;;;;5072016;28;20671;-81
2022/01/20 00:08:51;;;;;;;17.97;3.70;;;2.90;99.90;;;;;;5092633;28;20206;-81
2022/01/20 00:28:03;;;;;;;23.03;4.37;;;3.00;99.90;;;;;;5080550;28;20168;-80
2022/01/20 00:30:39;;;;;;;15.47;3.87;;;3.10;99.90;;;;;;5063399;28;20206;-80
2022/01/20 00:38:18;;;;;;;24.17;4.17;;;3.10;99.90;;;;;;5079294;28;20184;-81
2022/01/20 00:40:44;;;;;;;18.67;3.40;;;3.20;99.90;;;;;;5063639;28;20167;-80
2022/01/20 00:43:10;;;;;;;27.00;3.50;;;3.20;99.90;;;;;;5064036;28;20608;-81
2022/01/20 00:45:36;;;;;;;16.87;3.90;;;3.30;99.90;;;;;;5064738;28;20267;-81
2022/01/20 00:48:02;;;;;;;24.00;3.90;;;3.10;99.90;;;;;;5062373;28;20230;-80
2022/01/20 00:50:27;;;;;;;21.23;3.93;;;3.10;99.90;;;;;;5074247;28;20176;-80
2022/01/20 00:52:53;;;;;;;20.43;3.60;;;3.10;99.90;;;;;;5063810;28;20211;-80
2022/01/20 00:55:20;;;;;;;20.27;3.30;;;3.10;99.90;;;;;;5063110;28;20207;-81
2022/01/20 00:57:47;;;;;;;18.63;3.50;;;3.10;99.90;;;;;;5061298;28;20169;-80
2022/01/20 01:00:14;;;;;;;17.50;3.47;;;3.20;99.90;;;;;;5063119;28;20176;-81
2022/01/20 01:02:41;;;;;;;17.97;3.03;;;3.20;99.90;;;;;;5063940;28;20278;-81
2022/01/20 01:05:09;;;;;;;22.37;3.33;;;3.20;99.90;;;;;;5061442;28;20229;-81
2022/01/20 01:07:53;;;;;;;19.90;4.07;;;3.20;99.90;;;;;;5063077;28;20179;-81
2022/01/20 01:10:28;;;;;;;25.23;3.60;;;3.20;99.90;;;;;;5063299;28;20209;-81
2022/01/20 01:15:30;;;;;;;19.50;2.90;;;3.20;99.90;;;;;;5081235;28;20214;-81
2022/01/20 01:23:21;;;;;;;12.87;3.17;;;3.30;99.90;;;;;;5081262;28;20652;-81
2022/01/20 01:25:47;;;;;;;16.17;2.77;;;3.20;99.90;;;;;;5067789;28;20191;-81
2022/01/20 01:28:16;;;;;;;14.40;2.73;;;3.00;99.90;;;;;;5057155;28;20176;-81
2022/01/20 01:31:14;;;;;;;13.27;2.60;;;2.80;99.90;;;;;;5063759;28;20182;-81
2022/01/20 01:33:30;;;;;;;13.83;1.83;;;2.60;99.90;;;;;;5072444;28;20294;-81
2022/01/20 01:35:58;;;;;;;10.03;1.97;;;2.10;99.90;;;;;;5077448;28;20180;-81
2022/01/20 01:38:35;;;;;;;8.23;1.50;;;1.80;99.90;;;;;;5081289;28;20172;-82
2022/01/20 01:41:04;;;;;;;14.77;2.33;;;1.70;99.90;;;;;;5080870;28;20162;-81
2022/01/20 01:43:31;;;;;;;12.37;1.97;;;1.60;99.90;;;;;;5079837;28;20195;-82
2022/01/20 01:45:57;;;;;;;8.40;1.50;;;1.70;99.90;;;;;;5078977;28;20195;-80
2022/01/20 01:48:23;;;;;;;9.10;1.80;;;1.60;99.90;;;;;;5083942;28;20278;-81
2022/01/20 01:50:56;;;;;;;16.37;2.43;;;1.60;99.90;;;;;;5079857;28;20161;-81
2022/01/20 01:53:23;;;;;;;8.97;1.90;;;1.60;99.90;;;;;;5078236;28;20209;-81
2022/01/20 01:55:52;;;;;;;10.20;2.03;;;1.60;99.90;;;;;;5103754;28;20195;-80
2022/01/20 01:58:19;;;;;;;12.63;1.87;;;1.70;99.90;;;;;;5074380;28;20255;-81
2022/01/20 02:01:00;;;;;;;8.23;1.63;;;1.70;99.90;;;;;;5081546;28;20412;-81
2022/01/20 02:03:33;;;;;;;10.30;1.93;;;1.70;99.90;;;;;;5069851;28;20199;-81
2022/01/20 02:19:53;;;;;;;11.37;2.00;;;1.90;99.90;;;;;;5082450;28;20217;-81
2022/01/20 02:22:44;;;;;;;12.47;1.90;;;1.90;99.90;;;;;;5072095;28;20259;-80
2022/01/20 02:25:26;;;;;;;10.27;2.10;;;1.90;99.90;;;;;;5066868;28;20196;-81
2022/01/20 02:28:02;;;;;;;7.67;1.90;;;1.90;99.90;;;;;;5066000;28;20180;-81
2022/01/20 02:30:29;;;;;;;11.43;2.60;;;1.70;99.90;;;;;;5064354;28;20703;-81
2022/01/20 02:33:01;;;;;;;13.70;2.33;;;1.70;99.90;;;;;;5065309;28;20265;-82
2022/01/20 02:35:40;;;;;;;9.50;2.23;;;1.60;99.90;;;;;;5064838;28;20741;-81
2022/01/20 02:46:08;;;;;;;13.20;2.37;;;1.40;99.90;;;;;;5095697;28;20171;-80
2022/01/20 02:48:35;;;;;;;12.30;2.33;;;1.40;99.90;;;;;;5091481;28;20164;-81
2022/01/20 02:51:02;;;;;;;21.63;2.90;;;1.40;99.90;;;;;;5073877;28;20168;-80
2022/01/20 02:53:28;;;;;;;14.73;3.07;;;1.40;99.90;;;;;;5065783;28;20204;-81
2022/01/20 02:55:53;;;;;;;16.87;2.57;;;1.40;99.90;;;;;;5065540;28;20271;-80
2022/01/20 02:58:20;;;;;;;16.73;3.07;;;1.40;99.90;;;;;;5065811;28;20197;-81
2022/01/20 03:00:46;;;;;;;16.07;2.67;;;1.50;99.90;;;;;;5065971;28;20172;-81
2022/01/20 03:03:14;;;;;;;15.10;3.17;;;1.50;99.90;;;;;;5067153;28;20258;-81
2022/01/20 03:05:40;;;;;;;16.83;2.93;;;1.50;99.90;;;;;;5064655;28;20186;-80
2022/01/20 03:08:13;;;;;;;17.67;2.90;;;1.50;99.90;;;;;;5063493;28;20172;-79
2022/01/20 03:10:39;;;;;;;15.93;2.93;;;1.50;99.90;;;;;;5067823;28;20249;-80
2022/01/20 03:13:07;;;;;;;16.40;3.20;;;1.40;99.90;;;;;;5065992;28;20697;-80
2022/01/20 03:15:35;;;;;;;15.67;3.07;;;1.50;99.90;;;;;;5064291;28;20180;-79
2022/01/20 03:18:02;;;;;;;18.43;3.37;;;1.50;99.90;;;;;;5063994;28;20623;-79
2022/01/20 03:20:28;;;;;;;15.43;3.20;;;1.50;99.90;;;;;;5065333;28;20267;-80
2022/01/20 03:22:55;;;;;;;13.37;3.07;;;1.60;99.90;;;;;;5065952;28;20179;-80
2022/01/20 03:25:20;;;;;;;13.10;2.47;;;1.60;99.90;;;;;;5065599;28;20204;-80
2022/01/20 03:27:49;;;;;;;16.40;2.80;;;1.60;99.90;;;;;;5065086;28;20172;-80
2022/01/20 03:30:14;;;;;;;16.83;2.90;;;1.60;99.90;;;;;;5062896;28;20182;-79
2022/01/20 03:32:41;;;;;;;13.10;2.83;;;1.60;99.90;;;;;;5064861;28;20247;-80
2022/01/20 03:35:08;;;;;;;15.63;2.40;;;1.60;99.90;;;;;;5064061;28;20200;-80
2022/01/20 03:37:35;;;;;;;12.53;2.33;;;1.60;99.90;;;;;;5097640;28;20259;-80
2022/01/20 03:40:08;;;;;;;12.77;2.33;;;1.60;99.90;;;;;;5065087;28;20164;-79
2022/01/20 03:42:34;;;;;;;11.93;2.27;;;1.60;99.90;;;;;;5065206;28;20195;-79
2022/01/20 03:45:00;;;;;;;9.40;2.47;;;1.60;99.90;;;;;;5063573;28;20196;-79
2022/01/20 03:47:26;;;;;;;9.50;1.80;;;1.60;99.90;;;;;;5077894;28;20209;-79
2022/01/20 03:50:08;;;;;;;12.83;2.47;;;1.60;99.90;;;;;;5060834;28;20168;-79
2022/01/20 03:52:34;;;;;;;12.07;2.70;;;1.60;99.90;;;;;;5064239;28;20203;-80
2022/01/20 03:54:59;;;;;;;9.53;2.00;;;1.70;99.90;;;;;;5064705;28;20199;-80
2022/01/20 03:57:26;;;;;;;11.53;2.43;;;1.70;99.90;;;;;;5081876;28;20180;-79
2022/01/20 03:59:51;;;;;;;14.27;2.30;;;1.70;99.90;;;;;;5081949;28;20222;-80
2022/01/20 04:02:25;;;;;;;6.43;1.87;;;1.60;99.90;;;;;;5065870;28;20176;-81
2022/01/20 04:05:00;;;;;;;10.17;2.07;;;1.60;99.90;;;;;;5066937;28;20206;-80
2022/01/20 04:07:34;;;;;;;14.03;2.50;;;1.50;99.90;;;;;;5065426;28;20183;-80
2022/01/20 04:09:59;;;;;;;11.47;2.17;;;1.50;99.90;;;;;;5064405;28;20274;-80
2022/01/20 04:12:25;;;;;;;11.80;2.07;;;1.50;99.90;;;;;;5065090;28;20298;-80
2022/01/20 04:14:51;;;;;;;8.50;1.97;;;1.40;99.90;;;;;;5064121;28;20187;-80
2022/01/20 04:17:19;;;;;;;10.47;2.20;;;1.40;99.90;;;;;;5063501;28;20176;-79
2022/01/20 04:19:46;;;;;;;10.53;1.97;;;1.40;99.90;;;;;;5055102;28;20176;-80
2022/01/20 04:22:14;;;;;;;9.47;1.93;;;1.30;99.90;;;;;;5048634;28;20294;-80
2022/01/20 04:24:39;;;;;;;8.30;1.60;;;1.30;99.90;;;;;;5063707;28;20678;-80
2022/01/20 04:27:05;;;;;;;9.30;1.80;;;1.30;99.90;;;;;;5058613;28;20272;-80
2022/01/20 04:29:34;;;;;;;9.37;1.60;;;1.30;99.90;;;;;;5060048;28;20172;-80
2022/01/20 04:32:00;;;;;;;11.67;1.80;;;1.30;99.90;;;;;;5062376;28;20209;-79
2022/01/20 04:34:26;;;;;;;10.83;1.63;;;1.30;99.90;;;;;;5064011;28;20184;-79
2022/01/20 04:36:54;;;;;;;11.77;2.00;;;1.20;99.90;;;;;;5064603;28;20268;-80
2022/01/20 04:39:23;;;;;;;10.37;1.87;;;1.20;99.90;;;;;;5063922;28;20243;-80
2022/01/20 04:41:51;;;;;;;9.70;2.10;;;1.20;99.90;;;;;;5063472;28;20643;-80
2022/01/20 04:44:31;;;;;;;10.03;2.20;;;1.20;99.90;;;;;;5066016;28;20199;-80
2022/01/20 04:47:10;;;;;;;8.63;1.90;;;1.20;99.90;;;;;;5064645;28;20200;-80
2022/01/20 04:57:53;;;;;;;10.97;2.57;;;1.20;99.90;;;;;;5080580;28;20195;-81
2022/01/20 05:00:19;;;;;;;10.77;2.10;;;1.20;99.90;;;;;;5063413;28;20183;-80
2022/01/20 05:03:06;;;;;;;11.67;2.10;;;1.20;99.90;;;;;;5063142;28;20176;-80
2022/01/20 05:05:33;;;;;;;11.53;2.37;;;1.20;99.90;;;;;;5065944;28;20182;-79
2022/01/20 05:08:07;;;;;;;17.03;2.40;;;1.20;99.90;;;;;;5065702;28;20172;-79
2022/01/20 05:10:34;;;;;;;12.47;2.77;;;1.20;99.90;;;;;;5062555;28;20225;-80
2022/01/20 05:13:08;;;;;;;14.27;2.30;;;1.20;99.90;;;;;;5062494;28;20191;-80
2022/01/20 05:15:34;;;;;;;12.47;2.47;;;1.20;99.90;;;;;;5063616;28;20193;-80
2022/01/20 05:18:02;;;;;;;13.87;2.60;;;1.30;99.90;;;;;;5062639;28;21035;-79
2022/01/20 05:20:29;;;;;;;16.30;2.33;;;1.30;99.90;;;;;;5059381;28;20194;-80
2022/01/20 05:22:55;;;;;;;14.40;2.63;;;1.30;99.90;;;;;;5061032;28;20190;-79
2022/01/20 05:25:24;;;;;;;17.03;2.57;;;1.30;99.90;;;;;;5060634;28;20196;-80
2022/01/20 05:27:49;;;;;;;14.30;2.60;;;1.30;99.90;;;;;;5086275;28;20203;-79
2022/01/20 05:30:16;;;;;;;15.40;2.50;;;1.40;99.90;;;;;;5053546;28;20259;-80
2022/01/20 05:33:02;;;;;;;12.33;2.43;;;1.40;99.90;;;;;;5080049;28;20199;-80
2022/01/20 05:35:29;;;;;;;12.67;2.30;;;1.40;99.90;;;;;;5059828;28;20658;-79
2022/01/20 05:37:54;;;;;;;18.07;3.03;;;1.40;99.90;;;;;;5059716;28;20179;-79
2022/01/20 05:40:20;;;;;;;18.63;3.27;;;1.40;99.90;;;;;;5061727;28;20183;-80
2022/01/20 05:42:46;;;;;;;18.07;2.77;;;1.40;99.90;;;;;;5061415;28;20623;-79
2022/01/20 05:45:15;;;;;;;8.60;2.47;;;1.50;99.90;;;;;;5064694;28;20280;-80
2022/01/20 05:47:46;;;;;;;15.83;3.10;;;1.50;99.90;;;;;;5057772;28;20258;-79
2022/01/20 05:50:40;;;;;;;15.73;3.10;;;1.50;99.90;;;;;;5081194;28;20225;-80
2022/01/20 05:53:08;;;;;;;14.83;2.87;;;1.60;99.90;;;;;;5062388;28;20195;-79
2022/01/20 05:55:35;;;;;;;15.43;2.40;;;1.60;99.90;;;;;;5062574;28;20208;-80
2022/01/20 05:58:02;;;;;;;15.27;2.80;;;1.60;99.90;;;;;;5061429;28;20707;-80
2022/01/20 06:00:28;;;;;;;17.90;3.20;;;1.60;99.90;;;;;;5061845;28;20176;-80
2022/01/20 06:05:45;;;;;;;13.30;2.77;;;1.50;99.90;;;;;;5079422;28;20171;-80
2022/01/20 06:08:13;;;;;;;17.10;2.77;;;1.50;99.90;;;;;;5054336;28;20196;-80
2022/01/20 06:10:39;;;;;;;20.70;3.37;;;1.50;99.90;;;;;;5055935;28;20175;-78
2022/01/20 06:13:12;;;;;;;11.60;3.00;;;1.50;99.90;;;;;;5062053;28;20202;-79
2022/01/20 06:15:38;;;;;;;16.10;3.10;;;1.40;99.90;;;;;;5061074;28;20172;-79
2022/01/20 06:18:04;;;;;;;18.23;3.10;;;1.50;99.90;;;;;;5061334;28;20611;-79
2022/01/20 06:20:32;;;;;;;18.90;2.93;;;1.50;99.90;;;;;;5060288;28;20225;-79
2022/01/20 06:22:58;;;;;;;17.77;3.30;;;1.50;99.90;;;;;;5061031;28;20179;-79
2022/01/20 06:25:24;;;;;;;16.60;3.17;;;1.50;99.90;;;;;;5060344;28;20203;-79
2022/01/20 06:27:51;;;;;;;23.80;3.30;;;1.50;99.90;;;;;;5061157;28;20512;-80
2022/01/20 06:30:16;;;;;;;19.03;4.30;;;1.50;99.90;;;;;;5060629;28;20225;-79
2022/01/20 06:32:42;;;;;;;19.37;3.60;;;1.50;99.90;;;;;;5060786;28;20183;-80
2022/01/20 06:35:14;;;;;;;17.13;3.13;;;1.60;99.90;;;;;;5061272;28;20235;-80
2022/01/20 06:37:40;;;;;;;20.00;3.27;;;1.60;99.90;;;;;;5060489;28;20172;-79
2022/01/20 06:40:07;;;;;;;15.47;2.80;;;1.60;99.90;;;;;;5060266;28;20172;-80
2022/01/20 06:42:34;;;;;;;15.73;3.47;;;1.60;99.90;;;;;;5060458;28;20202;-79
2022/01/20 06:45:00;;;;;;;17.33;3.20;;;1.60;99.90;;;;;;5060409;28;20191;-80
2022/01/20 06:47:26;;;;;;;18.67;3.60;;;1.60;99.90;;;;;;5061851;28;20179;-80
2022/01/20 06:49:52;;;;;;;19.37;3.60;;;1.60;99.90;;;;;;5060135;28;20198;-80
2022/01/20 06:52:18;;;;;;;17.10;2.87;;;1.60;99.90;;;;;;5060508;28;20192;-79
2022/01/20 06:54:44;;;;;;;16.93;3.13;;;1.60;99.90;;;;;;5060366;28;20237;-79
2022/01/20 06:57:09;;;;;;;23.80;3.40;;;1.50;99.90;;;;;;5069925;28;20176;-79
2022/01/20 06:59:35;;;;;;;14.43;3.13;;;1.50;99.90;;;;;;5067514;28;20225;-80
2022/01/20 07:02:01;;;;;;;18.43;3.40;;;1.50;99.90;;;;;;5064752;28;20194;-80
2022/01/20 07:04:32;;;;;;;15.80;2.87;;;1.50;99.90;;;;;;5065131;28;20279;-79
2022/01/20 07:07:00;;;;;;;20.30;3.43;;;1.50;99.90;;;;;;5065383;28;20643;-80
2022/01/20 07:09:48;;;;;;;18.27;3.33;;;1.50;99.90;;;;;;5084116;28;20577;-80
2022/01/20 07:12:19;;;;;;;21.17;3.50;;;1.50;99.90;;;;;;5066478;28;20200;-80
2022/01/20 07:14:45;;;;;;;12.20;3.10;;;1.50;99.90;;;;;;5065547;28;20256;-80
2022/01/20 07:17:11;;;;;;;17.67;2.43;;;1.60;99.90;;;;;;5065912;28;20175;-80
2022/01/20 07:19:41;;;;;;;17.97;3.63;;;1.60;99.90;;;;;;5063471;28;20549;-81
2022/01/20 07:22:09;;;;;;;16.23;2.60;;;1.70;99.90;;;;;;5102315;28;20179;-81
2022/01/20 07:24:35;;;;;;;20.03;3.10;;;1.60;99.90;;;;;;5070352;28;20270;-80
2022/01/20 07:27:10;;;;;;;12.30;2.87;;;1.70;99.90;;;;;;5073313;28;20168;-80
2022/01/20 07:29:36;;;;;;;19.73;3.27;;;1.60;99.90;;;;;;5070332;28;20176;-80
2022/01/20 07:32:03;;;;;;;14.63;2.37;;;1.60;99.90;;;;;;5071256;28;20200;-81
2022/01/20 07:34:36;;;;;;;15.37;3.33;;;1.70;99.90;;;;;;5086104;28;20196;-81
2022/01/20 07:37:03;;;;;;;22.10;3.40;;;1.60;99.90;;;;;;5069608;28;20204;-81
2022/01/20 07:39:28;;;;;;;16.07;2.67;;;1.70;99.90;;;;;;5068017;28;20168;-81
2022/01/20 07:41:54;;;;;;;16.07;3.00;;;1.70;99.90;;;;;;5079075;28;20172;-80
2022/01/20 07:44:38;;;;;;;18.57;2.77;;;1.70;99.90;;;;;;5100538;28;20218;-80
2022/01/20 07:47:11;;;;;;;19.57;3.33;;;1.70;99.90;;;;;;5080829;28;20179;-80
2022/01/20 07:49:37;;;;;;;18.27;2.70;;;1.80;99.90;;;;;;5069198;28;20625;-80
2022/01/20 07:52:03;;;;;;;18.07;3.50;;;1.80;99.90;;;;;;5071192;28;20234;-81
2022/01/20 07:54:29;;;;;;;23.53;3.23;;;1.80;99.90;;;;;;5067567;28;20208;-80
2022/01/20 07:56:54;;;;;;;21.07;3.20;;;1.80;99.90;;;;;;5067811;28;20198;-80
2022/01/20 07:59:20;;;;;;;11.23;2.90;;;1.80;99.90;;;;;;5066539;28;20198;-81
2022/01/20 08:01:46;;;;;;;16.57;2.93;;;1.80;99.90;;;;;;5066750;28;20624;-80
2022/01/20 08:04:13;;;;;;;18.07;3.33;;;1.80;99.90;;;;;;5060433;28;20191;-80
2022/01/20 08:06:45;;;;;;;14.67;3.10;;;1.90;99.90;;;;;;5066493;28;20180;-80
2022/01/20 08:09:17;;;;;;;13.20;2.37;;;1.90;99.90;;;;;;5073218;28;20175;-80
2022/01/20 08:11:55;;;;;;;14.07;2.37;;;2.00;99.90;;;;;;5069809;28;20213;-80
2022/01/20 08:14:44;;;;;;;9.70;2.30;;;2.00;99.90;;;;;;5052785;28;20293;-81
2022/01/20 08:17:14;;;;;;;9.60;2.23;;;2.00;99.90;;;;;;5067648;28;20176;-80
2022/01/20 08:19:45;;;;;;;13.90;1.93;;;1.90;99.90;;;;;;5067930;28;20172;-80
2022/01/20 08:22:13;;;;;;;9.00;2.10;;;1.90;99.90;;;;;;5068497;28;20214;-81
2022/01/20 08:24:41;;;;;;;12.57;2.03;;;1.90;99.90;;;;;;5069507;28;20607;-80
2022/01/20 08:27:06;;;;;;;11.43;2.20;;;1.90;99.90;;;;;;5067105;28;20197;-80
2022/01/20 08:29:40;;;;;;;15.33;2.37;;;1.90;99.90;;;;;;5066800;28;20267;-81
2022/01/20 08:32:06;;;;;;;12.70;2.33;;;1.80;99.90;;;;;;5066315;28;20192;-80
2022/01/20 08:34:42;;;;;;;13.73;2.87;;;1.80;99.90;;;;;;5069279;28;20682;-81
2022/01/20 08:37:33;;;;;;;11.27;2.73;;;1.80;99.90;;;;;;5083522;28;20200;-79
2022/01/20 08:40:04;;;;;;;18.07;2.30;;;1.80;99.90;;;;;;5067885;28;20539;-81
2022/01/20 08:42:31;;;;;;;11.00;2.57;;;1.70;99.90;;;;;;5062659;28;20259;-82
2022/01/20 08:44:57;;;;;;;13.67;2.60;;;1.80;99.90;;;;;;5066285;28;20192;-80
2022/01/20 08:47:23;;;;;;;12.57;2.70;;;1.70;99.90;;;;;;5067560;28;20182;-80
2022/01/20 08:49:51;;;;;;;20.37;3.37;;;1.70;99.90;;;;;;5066047;28;20179;-80
2022/01/20 08:52:18;;;;;;;14.27;3.20;;;1.70;99.90;;;;;;5067266;28;20196;-80
2022/01/20 08:54:50;;;;;;;11.37;2.77;;;1.80;99.90;;;;;;5066746;28;20684;-80
2022/01/20 08:57:35;;;;;;;15.10;3.20;;;1.80;99.90;;;;;;5082028;28;20187;-80
2022/01/20 09:00:03;;;;;;;18.43;2.80;;;1.80;99.90;;;;;;5056164;28;20161;-80
2022/01/20 09:02:30;;;;;;;11.47;2.40;;;1.90;99.90;;;;;;5062622;28;20172;-79
2022/01/20 09:04:56;;;;;;;16.53;2.90;;;1.90;99.90;;;;;;5063421;28;20272;-79
2022/01/20 09:07:44;;;;;;;9.77;2.20;;;1.90;99.90;;;;;;5066861;28;20203;-80
2022/01/20 09:10:19;;;;;;;15.70;2.40;;;1.90;99.90;;;;;;5076777;28;20646;-83
2022/01/20 09:15:29;;;;;;;14.67;3.10;;;2.00;99.90;;;;;;5081935;28;20199;-82
2022/01/20 09:18:05;;;;;;;14.57;2.97;;;2.10;99.90;;;;;;5065000;28;20161;-81
2022/01/20 09:20:36;;;;;;;10.50;2.27;;;2.20;99.90;;;;;;5061758;28;20523;-81
2022/01/20 09:23:03;;;;;;;16.30;3.13;;;2.30;99.90;;;;;;5067162;28;20187;-80
2022/01/20 09:25:30;;;;;;;16.70;2.90;;;2.50;99.90;;;;;;5066373;28;20678;-80
2022/01/20 09:28:00;;;;;;;9.27;2.00;;;2.50;99.90;;;;;;5065649;28;20176;-80
2022/01/20 09:30:28;;;;;;;7.10;1.67;;;2.30;99.90;;;;;;5077366;28;20191;-80
2022/01/20 09:33:09;;;;;;;7.57;1.77;;;2.20;99.90;;;;;;5080864;28;20212;-79
2022/01/20 09:35:37;;;;;;;5.03;1.30;;;2.00;99.90;;;;;;5081199;28;20217;-79
2022/01/20 09:38:04;;;;;;;11.07;2.00;;;1.80;99.90;;;;;;5081200;28;20195;-80
2022/01/20 09:40:33;;;;;;;8.03;1.93;;;1.70;99.90;;;;;;5079749;28;20253;-78
2022/01/20 09:43:05;;;;;;;7.20;1.73;;;1.80;99.90;;;;;;5080814;28;20205;-77
2022/01/20 09:45:32;;;;;;;11.87;2.50;;;1.90;99.90;;;;;;5079906;28;20192;-79
2022/01/20 09:47:58;;;;;;;9.63;1.67;;;1.90;99.90;;;;;;5080487;28;20243;-80
2022/01/20 09:50:46;;;;;;;13.60;2.40;;;1.90;99.90;;;;;;5066409;28;20179;-77
2022/01/20 09:53:33;;;;;;;13.80;2.17;;;1.90;99.90;;;;;;5103560;28;20203;-79
2022/01/20 09:56:22;;;;;;;12.57;2.43;;;1.70;99.90;;;;;;5113621;28;20194;-80
2022/01/20 09:58:48;;;;;;;14.47;2.53;;;1.50;99.90;;;;;;5078613;28;20178;-79
2022/01/20 10:01:39;;;;;;;8.67;2.20;;;1.40;99.90;;;;;;5079630;28;20175;-79
2022/01/20 10:04:26;;;;;;;15.47;2.47;;;1.40;99.90;;;;;;5074504;28;20192;-79
2022/01/20 10:07:01;;;;;;;12.57;2.57;;;1.40;99.90;;;;;;5078668;28;20231;-80
2022/01/20 10:09:37;;;;;;;9.37;2.23;;;1.40;99.90;;;;;;5080249;28;20167;-80
2022/01/20 10:12:12;;;;;;;17.07;2.77;;;1.50;99.90;;;;;;5078919;28;20179;-80
2022/01/20 10:14:57;;;;;;;14.00;2.73;;;1.60;99.90;;;;;;5080981;28;20176;-80
2022/01/20 10:17:43;;;;;;;14.83;2.47;;;1.70;99.90;;;;;;5096060;28;20171;-81
2022/01/20 10:20:11;;;;;;;10.20;1.97;;;1.90;99.90;;;;;;5073554;28;20174;-80
2022/01/20 10:23:03;;;;;;;11.47;2.73;;;2.20;99.90;;;;;;5090933;28;20186;-80
2022/01/20 10:25:44;;;;;;;12.70;2.33;;;2.40;99.90;;;;;;5074193;28;20173;-81
2022/01/20 10:28:28;;;;;;;12.90;2.33;;;2.50;99.90;;;;;;5089394;28;20156;-80
2022/01/20 10:30:55;;;;;;;9.07;1.93;;;2.50;99.90;;;;;;5092382;28;20168;-80
2022/01/20 10:33:44;;;;;;;6.33;1.67;;;2.40;99.90;;;;;;5069493;28;20195;-80
2022/01/20 10:36:11;;;;;;;9.77;1.80;;;1.80;99.90;;;;;;5065506;28;20187;-79
2022/01/20 10:38:59;;;;;;;4.63;1.60;;;1.20;99.90;;;;;;5080568;28;20175;-81
2022/01/20 10:41:29;;;;;;;5.90;1.33;;;0.70;99.90;;;;;;5066672;28;20164;-80
2022/01/20 10:44:05;;;;;;;3.40;1.00;;;0.50;99.90;;;;;;5066718;28;20200;-82
2022/01/20 10:46:59;;;;;;;5.43;1.93;;;0.30;99.90;;;;;;5081948;28;20190;-80
2022/01/20 10:49:32;;;;;;;3.70;1.33;;;0.10;99.90;;;;;;5076852;28;20277;-79
2022/01/20 10:52:07;;;;;;;25.50;6.90;;;0.10;99.90;;;;;;5064654;28;20228;-83
2022/01/20 10:54:36;;;;;;;7.00;2.53;;;0.20;99.90;;;;;;5081622;28;20293;-79
2022/01/20 10:57:09;;;;;;;11.10;2.27;;;0.30;99.90;;;;;;5063309;28;20196;-81
2022/01/20 10:59:53;;;;;;;7.73;2.40;;;0.50;99.90;;;;;;5066698;28;20172;-81
2022/01/20 11:02:29;;;;;;;7.17;1.90;;;0.60;99.90;;;;;;5068934;28;20267;-81
2022/01/20 11:04:56;;;;;;;16.23;3.53;;;0.70;99.90;;;;;;5063039;28;20204;-81
2022/01/20 11:07:25;;;;;;;8.13;2.17;;;0.90;99.90;;;;;;5065360;28;20580;-81
2022/01/20 11:10:02;;;;;;;12.50;2.77;;;1.00;99.90;;;;;;5066167;28;20188;-81
2022/01/20 11:12:46;;;;;;;13.17;2.83;;;1.30;99.90;;;;;;5088522;28;20188;-81
2022/01/20 11:15:31;;;;;;;13.10;3.03;;;1.40;99.90;;;;;;5069998;28;20239;-80
2022/01/20 11:17:59;;;;;;;11.27;3.43;;;1.60;99.90;;;;;;5063305;28;20167;-80
2022/01/20 11:20:29;;;;;;;16.88;3.22;;;1.70;99.90;;;;;;5052250;28;20505;-82
2022/01/20 11:23:05;;;;;;;9.27;2.00;;;1.90;99.90;;;;;;5066874;28;20525;-80
2022/01/20 11:25:41;;;;;;;12.63;2.07;;;2.00;99.90;;;;;;5068602;28;20221;-80
2022/01/20 11:28:32;;;;;;;10.63;2.00;;;2.10;99.90;;;;;;5065032;28;20194;-82
2022/01/20 11:31:06;;;;;;;11.27;2.60;;;2.30;99.90;;;;;;5081430;28;20192;-80
2022/01/20 11:33:44;;;;;;;9.93;2.87;;;2.40;99.90;;;;;;5068824;28;20348;-81
2022/01/20 11:36:31;;;;;;;13.47;2.67;;;2.60;99.90;;;;;;5064605;28;20187;-79
2022/01/20 11:39:04;;;;;;;16.07;2.80;;;2.70;99.90;;;;;;5069002;28;20187;-82
2022/01/20 11:41:49;;;;;;;12.30;2.30;;;2.80;99.90;;;;;;5064494;28;20180;-80
2022/01/20 11:44:20;;;;;;;14.93;3.23;;;3.00;99.90;;;;;;5062458;28;20199;-80
2022/01/20 11:46:50;;;;;;;14.23;3.97;;;3.10;99.90;;;;;;5082054;28;20172;-80
2022/01/20 11:49:19;;;;;;;11.67;2.90;;;3.10;99.90;;;;;;5063463;28;20162;-82
2022/01/20 11:51:55;;;;;;;12.47;2.87;;;3.00;99.90;;;;;;5061545;28;20192;-79
2022/01/20 11:54:43;;;;;;;8.93;2.80;;;3.10;99.90;;;;;;5062247;28;20239;-80
2022/01/20 11:57:14;;;;;;;10.97;2.50;;;3.10;99.90;;;;;;5065186;28;20199;-80
2022/01/20 11:59:47;;;;;;;10.47;2.43;;;3.10;99.90;;;;;;5062748;28;20193;-80
2022/01/20 12:02:34;;;;;;;10.10;2.20;;;3.20;99.90;;;;;;5059453;28;20271;-80
2022/01/20 12:05:27;;;;;;;11.97;2.47;;;3.50;99.90;;;;;;5078874;28;20195;-79
2022/01/20 12:08:15;;;;;;;10.50;2.73;;;3.50;99.90;;;;;;5071143;28;20201;-82
2022/01/20 12:10:43;;;;;;;16.33;2.87;;;3.50;99.90;;;;;;5064038;28;20164;-79
2022/01/20 12:13:12;;;;;;;6.20;2.27;;;3.50;99.90;;;;;;5062637;28;20196;-79
2022/01/20 12:15:57;;;;;;;13.33;2.60;;;3.50;99.90;;;;;;5053082;28;20233;-79
2022/01/20 12:18:23;;;;;;;8.63;1.93;;;3.50;99.90;;;;;;5057656;28;20240;-80
2022/01/20 12:20:49;;;;;;;11.20;2.13;;;3.40;99.90;;;;;;5062575;28;20207;-80
2022/01/20 12:23:15;;;;;;;9.47;2.43;;;3.30;99.90;;;;;;5062200;28;20191;-82
2022/01/20 12:25:43;;;;;;;11.13;2.43;;;3.20;99.90;;;;;;5063053;28;20183;-81
2022/01/20 12:28:12;;;;;;;11.43;2.37;;;3.10;99.90;;;;;;5063189;28;20239;-82
2022/01/20 12:30:45;;;;;;;15.23;2.67;;;3.10;99.90;;;;;;5064786;28;20176;-81
2022/01/20 12:33:15;;;;;;;14.27;2.80;;;3.10;99.90;;;;;;5065747;28;20297;-84
2022/01/20 12:35:49;;;;;;;13.37;2.57;;;3.10;99.90;;;;;;5082357;28;20179;-82
2022/01/20 12:38:28;;;;;;;9.50;2.33;;;3.10;99.90;;;;;;5100877;28;20171;-80
2022/01/20 12:41:02;;;;;;;11.57;2.47;;;3.10;99.90;;;;;;5099220;28;20249;-78
2022/01/20 12:43:46;;;;;;;12.23;2.20;;;3.10;99.90;;;;;;5062117;28;20173;-79
2022/01/20 12:46:14;;;;;;;7.87;2.20;;;3.10;99.90;;;;;;5070166;28;20179;-80
2022/01/20 12:48:58;;;;;;;9.07;2.50;;;3.10;99.90;;;;;;5084738;28;20172;-78
2022/01/20 12:51:50;;;;;;;10.03;1.73;;;3.00;99.90;;;;;;5062676;28;20185;-80
2022/01/20 12:54:32;;;;;;;11.17;2.57;;;3.10;99.90;;;;;;5062572;28;20217;-79
2022/01/20 12:57:06;;;;;;;9.30;2.20;;;3.10;99.90;;;;;;5084057;28;20183;-80
2022/01/20 12:59:43;;;;;;;6.73;1.63;;;3.20;99.90;;;;;;5064421;28;20172;-80
2022/01/20 13:02:23;;;;;;;6.97;1.57;;;3.10;99.40;;;;;;5065027;28;20180;-79
2022/01/20 13:04:54;;;;;;;9.40;2.90;;;3.10;99.40;;;;;;5061444;28;20188;-80
2022/01/20 13:07:20;;;;;;;11.03;2.33;;;3.10;99.90;;;;;;5074840;28;20631;-79
2022/01/20 13:09:52;;;;;;;8.87;1.97;;;3.10;99.90;;;;;;5057199;28;20246;-78
2022/01/20 13:12:31;;;;;;;12.73;2.00;;;3.10;99.90;;;;;;5047560;28;20211;-79
2022/01/20 13:14:57;;;;;;;11.23;2.53;;;3.20;99.90;;;;;;5060716;28;20192;-79
2022/01/20 13:17:27;;;;;;;8.07;2.00;;;3.20;99.90;;;;;;5073823;28;20180;-79
2022/01/20 13:19:55;;;;;;;9.07;1.90;;;3.20;99.90;;;;;;5055101;28;20180;-79
2022/01/20 13:22:31;;;;;;;11.87;2.07;;;3.30;99.90;;;;;;5058438;28;20177;-81
2022/01/20 13:25:16;;;;;;;5.77;1.57;;;3.50;99.90;;;;;;5067485;28;20199;-80
2022/01/20 13:27:55;;;;;;;5.17;1.17;;;3.60;99.20;;;;;;5056746;28;20642;-78
2022/01/20 13:30:28;;;;;;;4.10;1.37;;;3.40;99.90;;;;;;5059938;28;20160;-78
2022/01/20 13:32:55;;;;;;;5.77;1.50;;;2.80;99.90;;;;;;5078016;28;20203;-78
2022/01/20 13:35:22;;;;;;;6.67;1.40;;;2.20;99.90;;;;;;5060488;28;20188;-79
2022/01/20 13:38:01;;;;;;;8.57;1.43;;;1.80;99.90;;;;;;5057774;28;20225;-79
2022/01/20 13:40:27;;;;;;;4.37;1.20;;;1.60;99.90;;;;;;5055281;28;20177;-77
2022/01/20 13:45:58;;;;;;;7.03;1.90;;;1.00;99.90;;;;;;5056206;28;20195;-79
2022/01/20 13:48:29;;;;;;;8.60;1.80;;;0.80;99.90;;;;;;5041015;28;20241;-79
2022/01/20 13:50:58;;;;;;;9.73;1.87;;;0.70;99.90;;;;;;5059420;28;20178;-79
2022/01/20 13:53:27;;;;;;;6.80;1.73;;;0.70;99.90;;;;;;5076659;28;20286;-79
2022/01/20 13:55:56;;;;;;;4.67;1.30;;;0.70;99.90;;;;;;5059853;28;20175;-79
2022/01/20 13:58:33;;;;;;;9.13;1.90;;;0.80;99.90;;;;;;5061411;28;20218;-80
2022/01/20 14:01:05;;;;;;;5.40;1.60;;;0.90;99.90;;;;;;5063172;28;20179;-79
2022/01/20 14:03:33;;;;;;;5.77;1.50;;;1.00;99.90;;;;;;5061449;28;20214;-79
2022/01/20 14:05:58;;;;;;;6.87;1.70;;;1.00;99.90;;;;;;5059658;28;20274;-80
2022/01/20 14:08:34;;;;;;;7.80;1.50;;;1.10;99.90;;;;;;5080649;28;20211;-80
2022/01/20 14:10:59;;;;;;;9.97;1.90;;;1.00;99.90;;;;;;5063549;28;20178;-79
2022/01/20 14:13:28;;;;;;;7.63;2.00;;;1.00;99.90;;;;;;5092514;28;20211;-80
2022/01/20 14:15:55;;;;;;;7.60;1.47;;;1.10;99.90;;;;;;5062540;28;20168;-79
2022/01/20 14:18:23;;;;;;;10.37;2.10;;;1.20;99.90;;;;;;5061480;28;20175;-79
2022/01/20 14:20:53;;;;;;;13.83;1.87;;;1.10;99.90;;;;;;5060440;28;20259;-79
2022/01/20 14:23:18;;;;;;;6.27;1.70;;;1.10;99.90;;;;;;5056843;28;20275;-79
2022/01/20 14:25:46;;;;;;;5.17;1.67;;;1.20;99.90;;;;;;5059565;28;20325;-79